sensor_id;sensor_type;location;lat;lon;timestamp;P1;durP1;ratioP1;P2;durP2;ratioP2
15476;SDS011;7840;42.702;23.296;2023-04-06T00:01:27;9.20;;;8.07;;
15476;SDS011;7840;42.702;23.296;2023-04-06T00:03:54;11.03;;;8.43;;
15476;SDS011;7840;42.702;23.296;2023-04-06T00:06:22;10.03;;;8.83;;
15476;SDS011;7840;42.702;23.296;2023-04-06T00:08:49;9.83;;;8.83;;
15476;SDS011;7840;42.702;23.296;2023-04-06T00:11:16;8.63;;;7.70;;
15476;SDS011;7840;42.702;23.296;2023-04-06T00:13:44;9.70;;;8.70;;
15476;SDS011;7840;42.702;23.296;2023-04-06T00:16:11;9.57;;;8.53;;
15476;SDS011;7840;42.702;23.296;2023-04-06T00:18:40;7.93;;;7.13;;
15476;SDS011;7840;42.702;23.296;2023-04-06T00:21:07;9.23;;;8.33;;
15476;SDS011;7840;42.702;23.296;2023-04-06T00:23:35;11.87;;;8.50;;
15476;SDS011;7840;42.702;23.296;2023-04-06T00:26:02;9.60;;;7.90;;
15476;SDS011;7840;42.702;23.296;2023-04-06T00:28:29;8.73;;;7.83;;
15476;SDS011;7840;42.702;23.296;2023-04-06T00:30:56;8.63;;;7.47;;
15476;SDS011;7840;42.702;23.296;2023-04-06T00:33:24;8.50;;;7.67;;
15476;SDS011;7840;42.702;23.296;2023-04-06T00:35:52;9.10;;;8.20;;
15476;SDS011;7840;42.702;23.296;2023-04-06T00:38:20;8.73;;;7.63;;
15476;SDS011;7840;42.702;23.296;2023-04-06T00:40:47;10.13;;;8.20;;
15476;SDS011;7840;42.702;23.296;2023-04-06T00:43:14;8.37;;;7.50;;
15476;SDS011;7840;42.702;23.296;2023-04-06T00:45:42;8.93;;;8.03;;
15476;SDS011;7840;42.702;23.296;2023-04-06T00:48:09;9.30;;;8.27;;
15476;SDS011;7840;42.702;23.296;2023-04-06T00:50:36;9.33;;;8.43;;
15476;SDS011;7840;42.702;23.296;2023-04-06T00:53:05;10.27;;;8.13;;
15476;SDS011;7840;42.702;23.296;2023-04-06T00:55:32;9.23;;;8.30;;
15476;SDS011;7840;42.702;23.296;2023-04-06T00:58:01;9.90;;;8.87;;
15476;SDS011;7840;42.702;23.296;2023-04-06T01:00:29;9.50;;;8.50;;
15476;SDS011;7840;42.702;23.296;2023-04-06T01:02:56;9.17;;;8.03;;
15476;SDS011;7840;42.702;23.296;2023-04-06T01:05:23;8.73;;;7.80;;
15476;SDS011;7840;42.702;23.296;2023-04-06T01:07:52;8.03;;;7.20;;
15476;SDS011;7840;42.702;23.296;2023-04-06T01:10:25;9.07;;;7.80;;
15476;SDS011;7840;42.702;23.296;2023-04-06T01:12:52;7.33;;;6.63;;
15476;SDS011;7840;42.702;23.296;2023-04-06T01:15:20;8.00;;;7.20;;
15476;SDS011;7840;42.702;23.296;2023-04-06T01:17:47;9.87;;;8.10;;
15476;SDS011;7840;42.702;23.296;2023-04-06T01:20:15;8.57;;;7.67;;
15476;SDS011;7840;42.702;23.296;2023-04-06T01:22:43;9.10;;;7.37;;
15476;SDS011;7840;42.702;23.296;2023-04-06T01:25:11;13.03;;;11.67;;
15476;SDS011;7840;42.702;23.296;2023-04-06T01:27:38;10.03;;;8.17;;
15476;SDS011;7840;42.702;23.296;2023-04-06T01:30:06;10.37;;;8.63;;
15476;SDS011;7840;42.702;23.296;2023-04-06T01:32:33;10.53;;;8.97;;
15476;SDS011;7840;42.702;23.296;2023-04-06T01:35:01;9.80;;;8.80;;
15476;SDS011;7840;42.702;23.296;2023-04-06T01:37:28;10.33;;;9.23;;
15476;SDS011;7840;42.702;23.296;2023-04-06T01:39:59;9.53;;;8.53;;
15476;SDS011;7840;42.702;23.296;2023-04-06T01:42:26;8.93;;;8.03;;
15476;SDS011;7840;42.702;23.296;2023-04-06T01:44:55;8.57;;;7.67;;
15476;SDS011;7840;42.702;23.296;2023-04-06T01:47:22;9.70;;;8.70;;
15476;SDS011;7840;42.702;23.296;2023-04-06T01:49:49;10.87;;;9.77;;
15476;SDS011;7840;42.702;23.296;2023-04-06T01:52:17;11.43;;;10.33;;
15476;SDS011;7840;42.702;23.296;2023-04-06T01:54:44;11.87;;;10.67;;
15476;SDS011;7840;42.702;23.296;2023-04-06T01:57:13;11.10;;;9.40;;
15476;SDS011;7840;42.702;23.296;2023-04-06T01:59:40;11.00;;;9.73;;
15476;SDS011;7840;42.702;23.296;2023-04-06T02:02:07;11.90;;;10.70;;
15476;SDS011;7840;42.702;23.296;2023-04-06T02:04:35;11.47;;;10.33;;
15476;SDS011;7840;42.702;23.296;2023-04-06T02:07:02;10.77;;;9.67;;
15476;SDS011;7840;42.702;23.296;2023-04-06T02:09:30;11.80;;;9.37;;
15476;SDS011;7840;42.702;23.296;2023-04-06T02:11:57;11.50;;;10.40;;
15476;SDS011;7840;42.702;23.296;2023-04-06T02:14:27;10.20;;;9.20;;
15476;SDS011;7840;42.702;23.296;2023-04-06T02:16:55;12.33;;;10.37;;
15476;SDS011;7840;42.702;23.296;2023-04-06T02:19:22;10.07;;;9.07;;
15476;SDS011;7840;42.702;23.296;2023-04-06T02:21:49;11.97;;;10.70;;
15476;SDS011;7840;42.702;23.296;2023-04-06T02:24:17;13.53;;;10.20;;
15476;SDS011;7840;42.702;23.296;2023-04-06T02:26:44;13.07;;;9.87;;
15476;SDS011;7840;42.702;23.296;2023-04-06T02:29:11;9.90;;;8.80;;
15476;SDS011;7840;42.702;23.296;2023-04-06T02:31:40;11.83;;;9.87;;
15476;SDS011;7840;42.702;23.296;2023-04-06T02:34:07;12.00;;;9.67;;
15476;SDS011;7840;42.702;23.296;2023-04-06T02:36:37;10.87;;;9.30;;
15476;SDS011;7840;42.702;23.296;2023-04-06T02:39:04;9.57;;;8.67;;
15476;SDS011;7840;42.702;23.296;2023-04-06T02:41:31;9.97;;;8.93;;
15476;SDS011;7840;42.702;23.296;2023-04-06T02:43:59;9.40;;;8.20;;
15476;SDS011;7840;42.702;23.296;2023-04-06T02:46:26;10.60;;;9.50;;
15476;SDS011;7840;42.702;23.296;2023-04-06T02:48:55;10.17;;;9.17;;
15476;SDS011;7840;42.702;23.296;2023-04-06T02:51:25;9.77;;;8.77;;
15476;SDS011;7840;42.702;23.296;2023-04-06T02:53:52;9.97;;;8.77;;
15476;SDS011;7840;42.702;23.296;2023-04-06T02:56:19;9.37;;;8.47;;
15476;SDS011;7840;42.702;23.296;2023-04-06T02:58:47;10.83;;;8.60;;
15476;SDS011;7840;42.702;23.296;2023-04-06T03:01:14;9.47;;;8.47;;
15476;SDS011;7840;42.702;23.296;2023-04-06T03:03:42;8.80;;;7.90;;
15476;SDS011;7840;42.702;23.296;2023-04-06T03:06:11;9.40;;;8.40;;
15476;SDS011;7840;42.702;23.296;2023-04-06T03:08:38;8.67;;;7.80;;
15476;SDS011;7840;42.702;23.296;2023-04-06T03:11:05;8.80;;;7.87;;
15476;SDS011;7840;42.702;23.296;2023-04-06T03:13:33;7.43;;;6.73;;
15476;SDS011;7840;42.702;23.296;2023-04-06T03:16:00;8.20;;;6.57;;
15476;SDS011;7840;42.702;23.296;2023-04-06T03:18:27;7.30;;;6.60;;
15476;SDS011;7840;42.702;23.296;2023-04-06T03:20:55;7.40;;;6.70;;
15476;SDS011;7840;42.702;23.296;2023-04-06T03:23:23;8.30;;;7.43;;
15476;SDS011;7840;42.702;23.296;2023-04-06T03:25:50;7.60;;;6.90;;
15476;SDS011;7840;42.702;23.296;2023-04-06T03:28:18;7.43;;;6.73;;
15476;SDS011;7840;42.702;23.296;2023-04-06T03:30:45;7.40;;;6.70;;
15476;SDS011;7840;42.702;23.296;2023-04-06T03:33:12;10.17;;;7.70;;
15476;SDS011;7840;42.702;23.296;2023-04-06T03:35:40;9.03;;;7.97;;
15476;SDS011;7840;42.702;23.296;2023-04-06T03:38:07;9.10;;;8.03;;
15476;SDS011;7840;42.702;23.296;2023-04-06T03:40:36;9.57;;;8.57;;
15476;SDS011;7840;42.702;23.296;2023-04-06T03:43:04;7.73;;;6.93;;
15476;SDS011;7840;42.702;23.296;2023-04-06T03:45:31;9.63;;;7.50;;
15476;SDS011;7840;42.702;23.296;2023-04-06T03:47:58;8.63;;;7.73;;
15476;SDS011;7840;42.702;23.296;2023-04-06T03:50:25;11.13;;;7.87;;
15476;SDS011;7840;42.702;23.296;2023-04-06T03:52:53;13.17;;;9.47;;
15476;SDS011;7840;42.702;23.296;2023-04-06T03:55:20;12.77;;;10.10;;
15476;SDS011;7840;42.702;23.296;2023-04-06T03:57:49;11.10;;;9.93;;
15476;SDS011;7840;42.702;23.296;2023-04-06T04:00:16;12.70;;;11.40;;
15476;SDS011;7840;42.702;23.296;2023-04-06T04:02:43;15.27;;;13.33;;
15476;SDS011;7840;42.702;23.296;2023-04-06T04:05:11;11.53;;;9.63;;
15476;SDS011;7840;42.702;23.296;2023-04-06T04:07:38;13.13;;;11.77;;
15476;SDS011;7840;42.702;23.296;2023-04-06T04:10:06;12.53;;;10.97;;
15476;SDS011;7840;42.702;23.296;2023-04-06T04:12:33;15.10;;;13.57;;
15476;SDS011;7840;42.702;23.296;2023-04-06T04:15:02;14.33;;;12.07;;
15476;SDS011;7840;42.702;23.296;2023-04-06T04:17:29;15.00;;;13.40;;
15476;SDS011;7840;42.702;23.296;2023-04-06T04:19:56;15.00;;;12.47;;
15476;SDS011;7840;42.702;23.296;2023-04-06T04:22:24;14.60;;;11.00;;
15476;SDS011;7840;42.702;23.296;2023-04-06T04:24:52;12.37;;;11.07;;
15476;SDS011;7840;42.702;23.296;2023-04-06T04:27:20;13.43;;;11.67;;
15476;SDS011;7840;42.702;23.296;2023-04-06T04:29:47;15.63;;;11.00;;
15476;SDS011;7840;42.702;23.296;2023-04-06T04:32:16;14.83;;;12.33;;
15476;SDS011;7840;42.702;23.296;2023-04-06T04:34:43;13.00;;;11.67;;
15476;SDS011;7840;42.702;23.296;2023-04-06T04:37:11;13.67;;;11.57;;
15476;SDS011;7840;42.702;23.296;2023-04-06T04:39:38;12.30;;;11.00;;
15476;SDS011;7840;42.702;23.296;2023-04-06T04:42:05;13.57;;;10.80;;
15476;SDS011;7840;42.702;23.296;2023-04-06T04:44:33;12.50;;;10.83;;
15476;SDS011;7840;42.702;23.296;2023-04-06T04:47:00;9.20;;;8.30;;
15476;SDS011;7840;42.702;23.296;2023-04-06T04:49:29;12.93;;;8.83;;
15476;SDS011;7840;42.702;23.296;2023-04-06T04:51:56;10.67;;;9.00;;
15476;SDS011;7840;42.702;23.296;2023-04-06T04:54:23;9.70;;;8.37;;
15476;SDS011;7840;42.702;23.296;2023-04-06T04:56:51;10.23;;;8.00;;
15476;SDS011;7840;42.702;23.296;2023-04-06T04:59:18;9.40;;;8.37;;
15476;SDS011;7840;42.702;23.296;2023-04-06T05:01:46;9.00;;;7.23;;
15476;SDS011;7840;42.702;23.296;2023-04-06T05:04:13;8.30;;;7.07;;
15476;SDS011;7840;42.702;23.296;2023-04-06T05:06:42;10.50;;;7.90;;
15476;SDS011;7840;42.702;23.296;2023-04-06T05:09:09;10.17;;;8.60;;
15476;SDS011;7840;42.702;23.296;2023-04-06T05:11:36;12.83;;;10.33;;
15476;SDS011;7840;42.702;23.296;2023-04-06T05:14:04;10.70;;;9.03;;
15476;SDS011;7840;42.702;23.296;2023-04-06T05:16:31;9.00;;;8.10;;
15476;SDS011;7840;42.702;23.296;2023-04-06T05:18:58;10.10;;;8.43;;
15476;SDS011;7840;42.702;23.296;2023-04-06T05:21:26;9.73;;;8.37;;
15476;SDS011;7840;42.702;23.296;2023-04-06T05:23:54;14.10;;;8.33;;
15476;SDS011;7840;42.702;23.296;2023-04-06T05:26:22;12.53;;;11.30;;
15476;SDS011;7840;42.702;23.296;2023-04-06T05:28:49;11.93;;;10.70;;
15476;SDS011;7840;42.702;23.296;2023-04-06T05:31:16;11.43;;;10.23;;
15476;SDS011;7840;42.702;23.296;2023-04-06T05:33:44;11.50;;;9.70;;
15476;SDS011;7840;42.702;23.296;2023-04-06T05:36:11;11.80;;;9.93;;
15476;SDS011;7840;42.702;23.296;2023-04-06T05:38:38;13.87;;;12.47;;
15476;SDS011;7840;42.702;23.296;2023-04-06T05:41:07;12.07;;;10.30;;
15476;SDS011;7840;42.702;23.296;2023-04-06T05:43:34;13.47;;;11.83;;
15476;SDS011;7840;42.702;23.296;2023-04-06T05:46:02;17.43;;;11.93;;
15476;SDS011;7840;42.702;23.296;2023-04-06T05:48:29;13.47;;;12.03;;
15476;SDS011;7840;42.702;23.296;2023-04-06T05:50:56;14.43;;;11.63;;
15476;SDS011;7840;42.702;23.296;2023-04-06T05:53:25;16.63;;;12.10;;
15476;SDS011;7840;42.702;23.296;2023-04-06T05:55:54;13.27;;;11.80;;
15476;SDS011;7840;42.702;23.296;2023-04-06T05:58:22;14.07;;;11.90;;
15476;SDS011;7840;42.702;23.296;2023-04-06T06:00:50;13.37;;;11.97;;
15476;SDS011;7840;42.702;23.296;2023-04-06T06:03:18;14.27;;;10.37;;
15476;SDS011;7840;42.702;23.296;2023-04-06T06:05:47;15.57;;;12.27;;
15476;SDS011;7840;42.702;23.296;2023-04-06T06:08:15;12.87;;;11.33;;
15476;SDS011;7840;42.702;23.296;2023-04-06T06:10:42;13.23;;;11.40;;
15476;SDS011;7840;42.702;23.296;2023-04-06T06:13:09;14.60;;;12.70;;
15476;SDS011;7840;42.702;23.296;2023-04-06T06:15:38;17.53;;;12.07;;
15476;SDS011;7840;42.702;23.296;2023-04-06T06:18:05;13.33;;;11.90;;
15476;SDS011;7840;42.702;23.296;2023-04-06T06:20:39;14.53;;;10.73;;
15476;SDS011;7840;42.702;23.296;2023-04-06T06:23:06;11.50;;;9.90;;
15476;SDS011;7840;42.702;23.296;2023-04-06T06:25:34;12.67;;;10.93;;
15476;SDS011;7840;42.702;23.296;2023-04-06T06:28:01;12.50;;;11.27;;
15476;SDS011;7840;42.702;23.296;2023-04-06T06:30:28;14.57;;;11.87;;
15476;SDS011;7840;42.702;23.296;2023-04-06T06:32:57;13.53;;;11.87;;
15476;SDS011;7840;42.702;23.296;2023-04-06T06:35:25;12.70;;;11.33;;
15476;SDS011;7840;42.702;23.296;2023-04-06T06:37:52;13.43;;;12.03;;
15476;SDS011;7840;42.702;23.296;2023-04-06T06:40:19;12.73;;;11.43;;
15476;SDS011;7840;42.702;23.296;2023-04-06T06:42:48;17.13;;;10.47;;
15476;SDS011;7840;42.702;23.296;2023-04-06T06:45:17;13.40;;;12.00;;
15476;SDS011;7840;42.702;23.296;2023-04-06T06:47:45;14.00;;;11.43;;
15476;SDS011;7840;42.702;23.296;2023-04-06T06:50:13;12.37;;;11.07;;
15476;SDS011;7840;42.702;23.296;2023-04-06T06:52:41;16.07;;;11.53;;
15476;SDS011;7840;42.702;23.296;2023-04-06T06:55:09;14.17;;;11.90;;
15476;SDS011;7840;42.702;23.296;2023-04-06T06:57:36;12.10;;;10.90;;
15476;SDS011;7840;42.702;23.296;2023-04-06T07:00:04;11.40;;;10.20;;
15476;SDS011;7840;42.702;23.296;2023-04-06T07:02:33;10.87;;;9.77;;
15476;SDS011;7840;42.702;23.296;2023-04-06T07:05:01;14.57;;;10.67;;
15476;SDS011;7840;42.702;23.296;2023-04-06T07:07:31;11.97;;;10.57;;
15476;SDS011;7840;42.702;23.296;2023-04-06T07:09:58;13.73;;;10.80;;
15476;SDS011;7840;42.702;23.296;2023-04-06T07:12:26;11.80;;;10.57;;
15476;SDS011;7840;42.702;23.296;2023-04-06T07:14:53;13.53;;;12.13;;
15476;SDS011;7840;42.702;23.296;2023-04-06T07:17:20;12.33;;;10.70;;
15476;SDS011;7840;42.702;23.296;2023-04-06T07:19:48;12.37;;;10.67;;
15476;SDS011;7840;42.702;23.296;2023-04-06T07:22:15;13.83;;;12.30;;
15476;SDS011;7840;42.702;23.296;2023-04-06T07:24:44;12.17;;;9.87;;
15476;SDS011;7840;42.702;23.296;2023-04-06T07:27:11;12.03;;;10.83;;
15476;SDS011;7840;42.702;23.296;2023-04-06T07:29:39;12.97;;;9.43;;
15476;SDS011;7840;42.702;23.296;2023-04-06T07:32:06;10.87;;;9.77;;
15476;SDS011;7840;42.702;23.296;2023-04-06T07:34:33;13.70;;;10.07;;
15476;SDS011;7840;42.702;23.296;2023-04-06T07:37:01;13.20;;;10.50;;
15476;SDS011;7840;42.702;23.296;2023-04-06T07:39:28;11.23;;;9.23;;
15476;SDS011;7840;42.702;23.296;2023-04-06T07:41:57;12.60;;;11.30;;
15476;SDS011;7840;42.702;23.296;2023-04-06T07:44:24;12.90;;;11.43;;
15476;SDS011;7840;42.702;23.296;2023-04-06T07:46:52;12.87;;;11.00;;
15476;SDS011;7840;42.702;23.296;2023-04-06T07:49:19;11.83;;;10.53;;
15476;SDS011;7840;42.702;23.296;2023-04-06T07:51:48;15.00;;;11.37;;
15476;SDS011;7840;42.702;23.296;2023-04-06T07:54:15;11.87;;;10.50;;
15476;SDS011;7840;42.702;23.296;2023-04-06T07:56:42;10.60;;;9.37;;
15476;SDS011;7840;42.702;23.296;2023-04-06T07:59:11;12.93;;;9.40;;
15476;SDS011;7840;42.702;23.296;2023-04-06T08:01:38;12.53;;;11.30;;
15476;SDS011;7840;42.702;23.296;2023-04-06T08:04:06;11.27;;;10.17;;
15476;SDS011;7840;42.702;23.296;2023-04-06T08:06:34;12.33;;;10.87;;
15476;SDS011;7840;42.702;23.296;2023-04-06T08:09:01;10.97;;;9.90;;
15476;SDS011;7840;42.702;23.296;2023-04-06T08:11:29;13.43;;;9.87;;
15476;SDS011;7840;42.702;23.296;2023-04-06T08:13:56;9.23;;;8.30;;
15476;SDS011;7840;42.702;23.296;2023-04-06T08:16:25;9.77;;;8.77;;
15476;SDS011;7840;42.702;23.296;2023-04-06T08:18:52;10.03;;;9.03;;
15476;SDS011;7840;42.702;23.296;2023-04-06T08:21:19;8.70;;;7.80;;
15476;SDS011;7840;42.702;23.296;2023-04-06T08:23:47;10.90;;;9.90;;
15476;SDS011;7840;42.702;23.296;2023-04-06T08:26:15;9.87;;;8.33;;
15476;SDS011;7840;42.702;23.296;2023-04-06T08:28:42;10.33;;;9.33;;
15476;SDS011;7840;42.702;23.296;2023-04-06T08:31:10;10.20;;;8.13;;
15476;SDS011;7840;42.702;23.296;2023-04-06T08:33:38;10.10;;;8.47;;
15476;SDS011;7840;42.702;23.296;2023-04-06T08:36:06;10.27;;;8.87;;
15476;SDS011;7840;42.702;23.296;2023-04-06T08:38:34;9.40;;;8.50;;
15476;SDS011;7840;42.702;23.296;2023-04-06T08:41:06;9.00;;;7.93;;
15476;SDS011;7840;42.702;23.296;2023-04-06T08:43:34;10.60;;;8.10;;
15476;SDS011;7840;42.702;23.296;2023-04-06T08:46:03;11.13;;;9.10;;
15476;SDS011;7840;42.702;23.296;2023-04-06T08:48:30;10.23;;;9.13;;
15476;SDS011;7840;42.702;23.296;2023-04-06T08:51:00;9.63;;;8.23;;
15476;SDS011;7840;42.702;23.296;2023-04-06T08:53:28;9.93;;;8.93;;
15476;SDS011;7840;42.702;23.296;2023-04-06T08:55:59;11.77;;;9.17;;
15476;SDS011;7840;42.702;23.296;2023-04-06T08:58:28;14.17;;;8.67;;
15476;SDS011;7840;42.702;23.296;2023-04-06T09:00:55;8.97;;;8.07;;
15476;SDS011;7840;42.702;23.296;2023-04-06T09:03:25;10.17;;;8.73;;
15476;SDS011;7840;42.702;23.296;2023-04-06T09:05:53;10.77;;;9.27;;
15476;SDS011;7840;42.702;23.296;2023-04-06T09:08:22;9.77;;;7.77;;
15476;SDS011;7840;42.702;23.296;2023-04-06T09:10:49;11.93;;;8.07;;
15476;SDS011;7840;42.702;23.296;2023-04-06T09:13:17;8.37;;;7.50;;
15476;SDS011;7840;42.702;23.296;2023-04-06T09:15:44;9.70;;;8.70;;
15476;SDS011;7840;42.702;23.296;2023-04-06T09:18:12;10.97;;;8.77;;
15476;SDS011;7840;42.702;23.296;2023-04-06T09:20:39;10.07;;;8.40;;
15476;SDS011;7840;42.702;23.296;2023-04-06T09:23:06;12.27;;;8.57;;
15476;SDS011;7840;42.702;23.296;2023-04-06T09:25:45;9.17;;;7.53;;
15476;SDS011;7840;42.702;23.296;2023-04-06T09:28:13;9.17;;;8.27;;
15476;SDS011;7840;42.702;23.296;2023-04-06T09:30:47;10.57;;;9.57;;
15476;SDS011;7840;42.702;23.296;2023-04-06T09:33:21;10.17;;;9.17;;
15476;SDS011;7840;42.702;23.296;2023-04-06T09:35:49;9.67;;;8.67;;
15476;SDS011;7840;42.702;23.296;2023-04-06T09:38:16;9.77;;;8.50;;
15476;SDS011;7840;42.702;23.296;2023-04-06T09:40:49;9.10;;;8.20;;
15476;SDS011;7840;42.702;23.296;2023-04-06T09:43:23;12.30;;;9.17;;
15476;SDS011;7840;42.702;23.296;2023-04-06T09:45:51;11.17;;;8.50;;
15476;SDS011;7840;42.702;23.296;2023-04-06T09:48:18;9.87;;;8.97;;
15476;SDS011;7840;42.702;23.296;2023-04-06T09:50:47;10.87;;;8.60;;
15476;SDS011;7840;42.702;23.296;2023-04-06T09:53:15;8.70;;;7.90;;
15476;SDS011;7840;42.702;23.296;2023-04-06T09:55:43;9.47;;;8.30;;
15476;SDS011;7840;42.702;23.296;2023-04-06T09:58:15;8.57;;;7.77;;
15476;SDS011;7840;42.702;23.296;2023-04-06T10:00:45;10.03;;;8.93;;
15476;SDS011;7840;42.702;23.296;2023-04-06T10:03:17;8.27;;;7.40;;
15476;SDS011;7840;42.702;23.296;2023-04-06T10:05:46;9.27;;;8.27;;
15476;SDS011;7840;42.702;23.296;2023-04-06T10:08:14;7.70;;;6.73;;
15476;SDS011;7840;42.702;23.296;2023-04-06T10:10:42;8.80;;;7.90;;
15476;SDS011;7840;42.702;23.296;2023-04-06T10:13:09;7.63;;;6.90;;
15476;SDS011;7840;42.702;23.296;2023-04-06T10:15:38;8.30;;;7.50;;
15476;SDS011;7840;42.702;23.296;2023-04-06T10:18:06;9.10;;;7.83;;
15476;SDS011;7840;42.702;23.296;2023-04-06T10:20:35;8.60;;;7.43;;
15476;SDS011;7840;42.702;23.296;2023-04-06T10:23:08;8.97;;;8.07;;
15476;SDS011;7840;42.702;23.296;2023-04-06T10:25:35;8.27;;;7.47;;
15476;SDS011;7840;42.702;23.296;2023-04-06T10:28:04;8.30;;;7.50;;
15476;SDS011;7840;42.702;23.296;2023-04-06T10:30:32;7.50;;;6.80;;
15476;SDS011;7840;42.702;23.296;2023-04-06T10:33:01;8.50;;;7.60;;
15476;SDS011;7840;42.702;23.296;2023-04-06T10:35:39;8.27;;;7.43;;
15476;SDS011;7840;42.702;23.296;2023-04-06T10:38:06;9.10;;;8.20;;
15476;SDS011;7840;42.702;23.296;2023-04-06T10:40:35;8.90;;;8.00;;
15476;SDS011;7840;42.702;23.296;2023-04-06T10:43:07;8.60;;;7.83;;
15476;SDS011;7840;42.702;23.296;2023-04-06T10:45:34;8.50;;;7.60;;
15476;SDS011;7840;42.702;23.296;2023-04-06T10:48:13;8.10;;;7.30;;
15476;SDS011;7840;42.702;23.296;2023-04-06T10:50:41;8.37;;;7.57;;
15476;SDS011;7840;42.702;23.296;2023-04-06T10:53:08;9.10;;;8.20;;
15476;SDS011;7840;42.702;23.296;2023-04-06T10:55:37;8.87;;;8.00;;
15476;SDS011;7840;42.702;23.296;2023-04-06T10:58:06;7.97;;;7.27;;
15476;SDS011;7840;42.702;23.296;2023-04-06T11:00:33;8.77;;;7.87;;
15476;SDS011;7840;42.702;23.296;2023-04-06T11:03:01;8.90;;;8.00;;
15476;SDS011;7840;42.702;23.296;2023-04-06T11:05:29;8.13;;;7.23;;
15476;SDS011;7840;42.702;23.296;2023-04-06T11:07:57;9.53;;;7.53;;
15476;SDS011;7840;42.702;23.296;2023-04-06T11:10:24;7.30;;;6.60;;
15476;SDS011;7840;42.702;23.296;2023-04-06T11:12:53;8.03;;;7.23;;
15476;SDS011;7840;42.702;23.296;2023-04-06T11:15:20;9.00;;;7.80;;
15476;SDS011;7840;42.702;23.296;2023-04-06T11:17:48;8.67;;;7.87;;
15476;SDS011;7840;42.702;23.296;2023-04-06T11:20:15;8.73;;;7.80;;
15476;SDS011;7840;42.702;23.296;2023-04-06T11:22:49;9.20;;;8.23;;
15476;SDS011;7840;42.702;23.296;2023-04-06T11:25:16;8.20;;;6.70;;
15476;SDS011;7840;42.702;23.296;2023-04-06T11:27:44;7.33;;;6.67;;
15476;SDS011;7840;42.702;23.296;2023-04-06T11:30:12;8.27;;;7.47;;
15476;SDS011;7840;42.702;23.296;2023-04-06T11:32:40;8.13;;;6.67;;
15476;SDS011;7840;42.702;23.296;2023-04-06T11:35:10;7.57;;;6.70;;
15476;SDS011;7840;42.702;23.296;2023-04-06T11:37:38;8.07;;;7.03;;
15476;SDS011;7840;42.702;23.296;2023-04-06T11:40:07;8.60;;;6.40;;
15476;SDS011;7840;42.702;23.296;2023-04-06T11:42:35;7.77;;;7.00;;
15476;SDS011;7840;42.702;23.296;2023-04-06T11:45:02;10.10;;;7.03;;
15476;SDS011;7840;42.702;23.296;2023-04-06T11:47:30;7.90;;;7.23;;
15476;SDS011;7840;42.702;23.296;2023-04-06T11:50:07;11.20;;;8.20;;
15476;SDS011;7840;42.702;23.296;2023-04-06T11:52:34;9.10;;;7.07;;
15476;SDS011;7840;42.702;23.296;2023-04-06T11:55:11;8.63;;;7.10;;
15476;SDS011;7840;42.702;23.296;2023-04-06T11:57:39;7.83;;;7.07;;
15476;SDS011;7840;42.702;23.296;2023-04-06T12:00:07;10.20;;;7.70;;
15476;SDS011;7840;42.702;23.296;2023-04-06T12:02:35;8.80;;;7.90;;
15476;SDS011;7840;42.702;23.296;2023-04-06T12:05:02;8.23;;;7.27;;
15476;SDS011;7840;42.702;23.296;2023-04-06T12:07:30;8.57;;;7.63;;
15476;SDS011;7840;42.702;23.296;2023-04-06T12:09:58;9.07;;;7.53;;
15476;SDS011;7840;42.702;23.296;2023-04-06T12:12:26;8.80;;;7.03;;
15476;SDS011;7840;42.702;23.296;2023-04-06T12:14:54;8.80;;;7.90;;
15476;SDS011;7840;42.702;23.296;2023-04-06T12:17:21;9.80;;;8.03;;
15476;SDS011;7840;42.702;23.296;2023-04-06T12:19:49;7.90;;;7.00;;
15476;SDS011;7840;42.702;23.296;2023-04-06T12:22:17;9.87;;;7.07;;
15476;SDS011;7840;42.702;23.296;2023-04-06T12:24:44;8.70;;;7.17;;
15476;SDS011;7840;42.702;23.296;2023-04-06T12:27:12;9.47;;;7.17;;
15476;SDS011;7840;42.702;23.296;2023-04-06T12:29:42;6.73;;;5.97;;
15476;SDS011;7840;42.702;23.296;2023-04-06T12:32:10;8.67;;;7.27;;
15476;SDS011;7840;42.702;23.296;2023-04-06T12:34:37;7.17;;;6.47;;
15476;SDS011;7840;42.702;23.296;2023-04-06T12:37:05;6.77;;;6.17;;
15476;SDS011;7840;42.702;23.296;2023-04-06T12:39:33;7.13;;;6.37;;
15476;SDS011;7840;42.702;23.296;2023-04-06T12:42:00;7.87;;;7.17;;
15476;SDS011;7840;42.702;23.296;2023-04-06T12:44:28;9.47;;;7.23;;
15476;SDS011;7840;42.702;23.296;2023-04-06T12:46:57;9.63;;;7.03;;
15476;SDS011;7840;42.702;23.296;2023-04-06T12:49:25;10.23;;;7.57;;
15476;SDS011;7840;42.702;23.296;2023-04-06T12:51:53;7.90;;;7.10;;
15476;SDS011;7840;42.702;23.296;2023-04-06T12:54:20;9.07;;;7.73;;
15476;SDS011;7840;42.702;23.296;2023-04-06T12:56:48;8.30;;;6.93;;
15476;SDS011;7840;42.702;23.296;2023-04-06T13:01:45;8.77;;;7.80;;
15476;SDS011;7840;42.702;23.296;2023-04-06T13:04:14;9.00;;;7.67;;
15476;SDS011;7840;42.702;23.296;2023-04-06T13:06:41;8.63;;;7.80;;
15476;SDS011;7840;42.702;23.296;2023-04-06T13:09:08;9.63;;;7.47;;
15476;SDS011;7840;42.702;23.296;2023-04-06T13:11:36;9.77;;;7.10;;
15476;SDS011;7840;42.702;23.296;2023-04-06T13:14:04;10.20;;;7.23;;
15476;SDS011;7840;42.702;23.296;2023-04-06T13:16:31;8.90;;;7.77;;
15476;SDS011;7840;42.702;23.296;2023-04-06T13:18:58;10.03;;;7.30;;
15476;SDS011;7840;42.702;23.296;2023-04-06T13:21:27;8.53;;;7.53;;
15476;SDS011;7840;42.702;23.296;2023-04-06T13:23:55;7.63;;;6.87;;
15476;SDS011;7840;42.702;23.296;2023-04-06T13:26:22;8.43;;;7.47;;
15476;SDS011;7840;42.702;23.296;2023-04-06T13:28:53;9.83;;;7.87;;
15476;SDS011;7840;42.702;23.296;2023-04-06T13:31:21;6.63;;;6.03;;
15476;SDS011;7840;42.702;23.296;2023-04-06T13:33:49;6.63;;;5.73;;
15476;SDS011;7840;42.702;23.296;2023-04-06T13:36:16;7.53;;;5.87;;
15476;SDS011;7840;42.702;23.296;2023-04-06T13:38:45;7.30;;;6.30;;
15476;SDS011;7840;42.702;23.296;2023-04-06T13:41:17;11.20;;;6.17;;
15476;SDS011;7840;42.702;23.296;2023-04-06T13:43:46;7.50;;;6.40;;
15476;SDS011;7840;42.702;23.296;2023-04-06T13:46:13;8.80;;;6.50;;
15476;SDS011;7840;42.702;23.296;2023-04-06T13:48:40;7.33;;;6.20;;
15476;SDS011;7840;42.702;23.296;2023-04-06T13:51:08;7.80;;;7.10;;
15476;SDS011;7840;42.702;23.296;2023-04-06T13:53:35;9.07;;;6.90;;
15476;SDS011;7840;42.702;23.296;2023-04-06T13:56:04;6.67;;;6.03;;
15476;SDS011;7840;42.702;23.296;2023-04-06T13:58:32;7.53;;;6.30;;
15476;SDS011;7840;42.702;23.296;2023-04-06T14:01:04;8.70;;;6.03;;
15476;SDS011;7840;42.702;23.296;2023-04-06T14:03:32;7.27;;;6.17;;
15476;SDS011;7840;42.702;23.296;2023-04-06T14:06:00;7.33;;;5.93;;
15476;SDS011;7840;42.702;23.296;2023-04-06T14:08:27;8.47;;;6.37;;
15476;SDS011;7840;42.702;23.296;2023-04-06T14:10:55;7.47;;;6.77;;
15476;SDS011;7840;42.702;23.296;2023-04-06T14:13:23;8.90;;;7.87;;
15476;SDS011;7840;42.702;23.296;2023-04-06T14:15:54;7.10;;;6.50;;
15476;SDS011;7840;42.702;23.296;2023-04-06T14:18:22;7.43;;;6.73;;
15476;SDS011;7840;42.702;23.296;2023-04-06T14:20:55;6.83;;;5.90;;
15476;SDS011;7840;42.702;23.296;2023-04-06T14:23:23;8.97;;;7.13;;
15476;SDS011;7840;42.702;23.296;2023-04-06T14:25:51;7.30;;;6.40;;
15476;SDS011;7840;42.702;23.296;2023-04-06T14:28:20;6.77;;;6.07;;
15476;SDS011;7840;42.702;23.296;2023-04-06T14:30:49;11.23;;;7.20;;
15476;SDS011;7840;42.702;23.296;2023-04-06T14:33:16;7.40;;;6.70;;
15476;SDS011;7840;42.702;23.296;2023-04-06T14:35:43;10.87;;;8.23;;
15476;SDS011;7840;42.702;23.296;2023-04-06T14:38:11;8.33;;;7.53;;
15476;SDS011;7840;42.702;23.296;2023-04-06T14:40:38;7.53;;;6.20;;
15476;SDS011;7840;42.702;23.296;2023-04-06T14:43:05;8.17;;;7.00;;
15476;SDS011;7840;42.702;23.296;2023-04-06T14:45:33;8.03;;;7.23;;